sensor_id;sensor_type;location;lat;lon;timestamp;P1;durP1;ratioP1;P2;durP2;ratioP2
32094;SDS011;18608;53.688;10.748;2023-04-06T00:01:06;17.43;;;8.07;;
32094;SDS011;18608;53.688;10.748;2023-04-06T00:03:32;15.50;;;8.80;;
32094;SDS011;18608;53.688;10.748;2023-04-06T00:05:58;20.43;;;9.07;;
32094;SDS011;18608;53.688;10.748;2023-04-06T00:08:25;25.13;;;11.83;;
32094;SDS011;18608;53.688;10.748;2023-04-06T00:10:51;17.20;;;10.40;;
32094;SDS011;18608;53.688;10.748;2023-04-06T00:13:17;17.23;;;10.20;;
32094;SDS011;18608;53.688;10.748;2023-04-06T00:15:43;22.03;;;13.23;;
32094;SDS011;18608;53.688;10.748;2023-04-06T00:18:08;20.00;;;11.77;;
32094;SDS011;18608;53.688;10.748;2023-04-06T00:20:34;24.43;;;13.97;;
32094;SDS011;18608;53.688;10.748;2023-04-06T00:23:00;20.57;;;13.20;;
32094;SDS011;18608;53.688;10.748;2023-04-06T00:25:26;21.00;;;12.57;;
32094;SDS011;18608;53.688;10.748;2023-04-06T00:27:52;23.10;;;13.00;;
32094;SDS011;18608;53.688;10.748;2023-04-06T00:30:17;29.37;;;14.87;;
32094;SDS011;18608;53.688;10.748;2023-04-06T00:32:43;27.03;;;15.00;;
32094;SDS011;18608;53.688;10.748;2023-04-06T00:35:09;24.77;;;13.80;;
32094;SDS011;18608;53.688;10.748;2023-04-06T00:37:35;24.57;;;13.47;;
32094;SDS011;18608;53.688;10.748;2023-04-06T00:40:01;31.10;;;13.73;;
32094;SDS011;18608;53.688;10.748;2023-04-06T00:42:27;25.00;;;14.23;;
32094;SDS011;18608;53.688;10.748;2023-04-06T00:44:54;29.50;;;15.57;;
32094;SDS011;18608;53.688;10.748;2023-04-06T00:47:22;29.93;;;13.80;;
32094;SDS011;18608;53.688;10.748;2023-04-06T00:49:50;27.93;;;14.60;;
32094;SDS011;18608;53.688;10.748;2023-04-06T00:52:16;23.00;;;13.47;;
32094;SDS011;18608;53.688;10.748;2023-04-06T00:54:41;21.83;;;11.90;;
32094;SDS011;18608;53.688;10.748;2023-04-06T00:57:07;20.60;;;10.00;;
32094;SDS011;18608;53.688;10.748;2023-04-06T00:59:33;17.30;;;12.47;;
32094;SDS011;18608;53.688;10.748;2023-04-06T01:01:59;11.00;;;8.30;;
32094;SDS011;18608;53.688;10.748;2023-04-06T01:04:26;17.23;;;11.70;;
32094;SDS011;18608;53.688;10.748;2023-04-06T01:06:52;16.17;;;9.83;;
32094;SDS011;18608;53.688;10.748;2023-04-06T01:09:17;13.80;;;8.83;;
32094;SDS011;18608;53.688;10.748;2023-04-06T01:11:43;16.50;;;8.50;;
32094;SDS011;18608;53.688;10.748;2023-04-06T01:14:09;18.30;;;8.27;;
32094;SDS011;18608;53.688;10.748;2023-04-06T01:16:35;13.40;;;8.33;;
32094;SDS011;18608;53.688;10.748;2023-04-06T01:19:01;17.40;;;8.27;;
32094;SDS011;18608;53.688;10.748;2023-04-06T01:21:32;13.80;;;8.63;;
32094;SDS011;18608;53.688;10.748;2023-04-06T01:23:58;14.70;;;8.67;;
32094;SDS011;18608;53.688;10.748;2023-04-06T01:26:24;9.43;;;7.30;;
32094;SDS011;18608;53.688;10.748;2023-04-06T01:28:50;12.47;;;8.40;;
32094;SDS011;18608;53.688;10.748;2023-04-06T01:31:16;20.43;;;7.17;;
32094;SDS011;18608;53.688;10.748;2023-04-06T01:33:41;18.73;;;8.43;;
32094;SDS011;18608;53.688;10.748;2023-04-06T01:36:07;16.10;;;7.67;;
32094;SDS011;18608;53.688;10.748;2023-04-06T01:38:33;12.90;;;6.90;;
32094;SDS011;18608;53.688;10.748;2023-04-06T01:40:59;12.60;;;8.27;;
32094;SDS011;18608;53.688;10.748;2023-04-06T01:43:24;11.80;;;7.70;;
32094;SDS011;18608;53.688;10.748;2023-04-06T01:45:50;18.03;;;10.33;;
32094;SDS011;18608;53.688;10.748;2023-04-06T01:48:16;12.60;;;8.00;;
32094;SDS011;18608;53.688;10.748;2023-04-06T01:50:42;15.97;;;9.33;;
32094;SDS011;18608;53.688;10.748;2023-04-06T01:53:07;13.37;;;7.90;;
32094;SDS011;18608;53.688;10.748;2023-04-06T01:55:33;11.83;;;7.27;;
32094;SDS011;18608;53.688;10.748;2023-04-06T01:57:59;18.30;;;8.27;;
32094;SDS011;18608;53.688;10.748;2023-04-06T02:00:25;18.80;;;8.47;;
32094;SDS011;18608;53.688;10.748;2023-04-06T02:02:50;16.37;;;10.57;;
32094;SDS011;18608;53.688;10.748;2023-04-06T02:05:16;18.90;;;11.80;;
32094;SDS011;18608;53.688;10.748;2023-04-06T02:07:42;16.00;;;9.90;;
32094;SDS011;18608;53.688;10.748;2023-04-06T02:10:12;22.27;;;11.53;;
32094;SDS011;18608;53.688;10.748;2023-04-06T02:12:40;15.97;;;8.67;;
32094;SDS011;18608;53.688;10.748;2023-04-06T02:15:06;20.73;;;10.67;;
32094;SDS011;18608;53.688;10.748;2023-04-06T02:17:32;16.23;;;10.90;;
32094;SDS011;18608;53.688;10.748;2023-04-06T02:19:58;14.77;;;9.77;;
32094;SDS011;18608;53.688;10.748;2023-04-06T02:22:23;17.40;;;9.73;;
32094;SDS011;18608;53.688;10.748;2023-04-06T02:24:49;16.90;;;9.70;;
32094;SDS011;18608;53.688;10.748;2023-04-06T02:27:15;18.70;;;9.23;;
32094;SDS011;18608;53.688;10.748;2023-04-06T02:29:41;16.83;;;10.63;;
32094;SDS011;18608;53.688;10.748;2023-04-06T02:32:06;18.47;;;9.90;;
32094;SDS011;18608;53.688;10.748;2023-04-06T02:34:32;17.63;;;11.20;;
32094;SDS011;18608;53.688;10.748;2023-04-06T02:36:58;26.87;;;12.73;;
32094;SDS011;18608;53.688;10.748;2023-04-06T02:39:24;19.40;;;10.90;;
32094;SDS011;18608;53.688;10.748;2023-04-06T02:41:50;18.10;;;11.20;;
32094;SDS011;18608;53.688;10.748;2023-04-06T02:44:15;17.33;;;11.10;;
32094;SDS011;18608;53.688;10.748;2023-04-06T02:46:41;27.30;;;13.70;;
32094;SDS011;18608;53.688;10.748;2023-04-06T02:49:07;19.00;;;11.70;;
32094;SDS011;18608;53.688;10.748;2023-04-06T02:51:32;26.40;;;15.23;;
32094;SDS011;18608;53.688;10.748;2023-04-06T02:53:58;18.47;;;12.60;;
32094;SDS011;18608;53.688;10.748;2023-04-06T02:56:24;28.50;;;13.73;;
32094;SDS011;18608;53.688;10.748;2023-04-06T02:58:51;23.20;;;12.77;;
32094;SDS011;18608;53.688;10.748;2023-04-06T03:01:17;20.40;;;12.20;;
32094;SDS011;18608;53.688;10.748;2023-04-06T03:03:43;21.47;;;12.27;;
32094;SDS011;18608;53.688;10.748;2023-04-06T03:06:08;19.43;;;11.90;;
32094;SDS011;18608;53.688;10.748;2023-04-06T03:08:34;18.77;;;10.87;;
32094;SDS011;18608;53.688;10.748;2023-04-06T03:11:00;17.00;;;11.13;;
32094;SDS011;18608;53.688;10.748;2023-04-06T03:13:26;20.10;;;10.00;;
32094;SDS011;18608;53.688;10.748;2023-04-06T03:15:52;19.40;;;9.03;;
32094;SDS011;18608;53.688;10.748;2023-04-06T03:18:20;22.47;;;11.97;;
32094;SDS011;18608;53.688;10.748;2023-04-06T03:20:48;26.30;;;11.90;;
32094;SDS011;18608;53.688;10.748;2023-04-06T03:23:14;22.00;;;12.60;;
32094;SDS011;18608;53.688;10.748;2023-04-06T03:25:39;22.23;;;11.50;;
32094;SDS011;18608;53.688;10.748;2023-04-06T03:28:05;18.50;;;11.47;;
32094;SDS011;18608;53.688;10.748;2023-04-06T03:30:31;25.07;;;13.30;;
32094;SDS011;18608;53.688;10.748;2023-04-06T03:32:56;30.20;;;12.50;;
32094;SDS011;18608;53.688;10.748;2023-04-06T03:35:22;26.70;;;14.30;;
32094;SDS011;18608;53.688;10.748;2023-04-06T03:37:49;28.10;;;15.10;;
32094;SDS011;18608;53.688;10.748;2023-04-06T03:40:15;23.97;;;12.80;;
32094;SDS011;18608;53.688;10.748;2023-04-06T03:42:41;21.97;;;12.50;;
32094;SDS011;18608;53.688;10.748;2023-04-06T03:45:07;22.80;;;12.90;;
32094;SDS011;18608;53.688;10.748;2023-04-06T03:47:33;25.20;;;14.60;;
32094;SDS011;18608;53.688;10.748;2023-04-06T03:49:58;26.03;;;13.07;;
32094;SDS011;18608;53.688;10.748;2023-04-06T03:52:24;23.57;;;13.50;;
32094;SDS011;18608;53.688;10.748;2023-04-06T03:54:51;27.40;;;14.67;;
32094;SDS011;18608;53.688;10.748;2023-04-06T03:57:16;28.03;;;13.63;;
32094;SDS011;18608;53.688;10.748;2023-04-06T03:59:42;30.50;;;15.30;;
32094;SDS011;18608;53.688;10.748;2023-04-06T04:02:08;19.93;;;12.43;;
32094;SDS011;18608;53.688;10.748;2023-04-06T04:04:34;28.70;;;15.40;;
32094;SDS011;18608;53.688;10.748;2023-04-06T04:07:00;24.33;;;14.33;;
32094;SDS011;18608;53.688;10.748;2023-04-06T04:09:25;27.13;;;14.47;;
32094;SDS011;18608;53.688;10.748;2023-04-06T04:11:51;31.23;;;14.67;;
32094;SDS011;18608;53.688;10.748;2023-04-06T04:14:17;27.90;;;15.13;;
32094;SDS011;18608;53.688;10.748;2023-04-06T04:16:42;24.87;;;14.90;;
32094;SDS011;18608;53.688;10.748;2023-04-06T04:19:08;25.03;;;14.93;;
32094;SDS011;18608;53.688;10.748;2023-04-06T04:21:41;29.80;;;16.10;;
32094;SDS011;18608;53.688;10.748;2023-04-06T04:24:09;32.13;;;17.37;;
32094;SDS011;18608;53.688;10.748;2023-04-06T04:26:35;30.00;;;16.37;;
32094;SDS011;18608;53.688;10.748;2023-04-06T04:29:00;28.53;;;15.50;;
32094;SDS011;18608;53.688;10.748;2023-04-06T04:31:26;30.13;;;16.80;;
32094;SDS011;18608;53.688;10.748;2023-04-06T04:33:52;28.13;;;15.70;;
32094;SDS011;18608;53.688;10.748;2023-04-06T04:36:17;31.37;;;15.67;;
32094;SDS011;18608;53.688;10.748;2023-04-06T04:38:43;31.90;;;14.10;;
32094;SDS011;18608;53.688;10.748;2023-04-06T04:41:09;32.53;;;16.70;;
32094;SDS011;18608;53.688;10.748;2023-04-06T04:43:35;26.90;;;15.20;;
32094;SDS011;18608;53.688;10.748;2023-04-06T04:46:01;25.37;;;14.00;;
32094;SDS011;18608;53.688;10.748;2023-04-06T04:48:26;32.17;;;14.70;;
32094;SDS011;18608;53.688;10.748;2023-04-06T04:50:52;28.60;;;13.93;;
32094;SDS011;18608;53.688;10.748;2023-04-06T04:53:20;27.00;;;15.07;;
32094;SDS011;18608;53.688;10.748;2023-04-06T04:55:45;29.57;;;15.07;;
32094;SDS011;18608;53.688;10.748;2023-04-06T04:58:11;31.33;;;17.40;;
32094;SDS011;18608;53.688;10.748;2023-04-06T05:00:41;27.50;;;14.97;;
32094;SDS011;18608;53.688;10.748;2023-04-06T05:03:07;31.90;;;16.07;;
32094;SDS011;18608;53.688;10.748;2023-04-06T05:05:34;34.30;;;18.03;;
32094;SDS011;18608;53.688;10.748;2023-04-06T05:08:01;33.13;;;17.93;;
32094;SDS011;18608;53.688;10.748;2023-04-06T05:10:26;34.87;;;16.67;;
32094;SDS011;18608;53.688;10.748;2023-04-06T05:12:52;32.93;;;16.03;;
32094;SDS011;18608;53.688;10.748;2023-04-06T05:15:18;28.23;;;16.53;;
32094;SDS011;18608;53.688;10.748;2023-04-06T05:17:44;32.53;;;15.33;;
32094;SDS011;18608;53.688;10.748;2023-04-06T05:20:10;36.50;;;18.03;;
32094;SDS011;18608;53.688;10.748;2023-04-06T05:22:36;30.00;;;14.83;;
32094;SDS011;18608;53.688;10.748;2023-04-06T05:25:02;32.60;;;17.00;;
32094;SDS011;18608;53.688;10.748;2023-04-06T05:27:28;32.13;;;15.50;;
32094;SDS011;18608;53.688;10.748;2023-04-06T05:29:54;30.97;;;15.17;;
32094;SDS011;18608;53.688;10.748;2023-04-06T05:32:19;35.63;;;16.10;;
32094;SDS011;18608;53.688;10.748;2023-04-06T05:34:47;31.27;;;15.73;;
32094;SDS011;18608;53.688;10.748;2023-04-06T05:37:14;26.20;;;16.80;;
32094;SDS011;18608;53.688;10.748;2023-04-06T05:39:40;28.17;;;17.93;;
32094;SDS011;18608;53.688;10.748;2023-04-06T05:42:06;28.87;;;17.07;;
32094;SDS011;18608;53.688;10.748;2023-04-06T05:44:32;29.20;;;17.20;;
32094;SDS011;18608;53.688;10.748;2023-04-06T05:46:58;29.47;;;18.00;;
32094;SDS011;18608;53.688;10.748;2023-04-06T05:49:23;35.07;;;19.60;;
32094;SDS011;18608;53.688;10.748;2023-04-06T05:51:49;31.30;;;18.27;;
32094;SDS011;18608;53.688;10.748;2023-04-06T05:54:15;38.93;;;18.30;;
32094;SDS011;18608;53.688;10.748;2023-04-06T05:56:41;28.70;;;18.03;;
32094;SDS011;18608;53.688;10.748;2023-04-06T05:59:06;34.17;;;17.80;;
32094;SDS011;18608;53.688;10.748;2023-04-06T06:01:32;31.00;;;17.50;;
32094;SDS011;18608;53.688;10.748;2023-04-06T06:04:03;26.80;;;15.00;;
32094;SDS011;18608;53.688;10.748;2023-04-06T06:06:38;29.90;;;16.70;;
32094;SDS011;18608;53.688;10.748;2023-04-06T06:09:04;24.70;;;15.83;;
32094;SDS011;18608;53.688;10.748;2023-04-06T06:11:30;24.30;;;15.23;;
32094;SDS011;18608;53.688;10.748;2023-04-06T06:13:55;24.23;;;15.27;;
32094;SDS011;18608;53.688;10.748;2023-04-06T06:16:21;26.20;;;14.80;;
32094;SDS011;18608;53.688;10.748;2023-04-06T06:18:47;26.10;;;13.60;;
32094;SDS011;18608;53.688;10.748;2023-04-06T06:21:13;30.50;;;13.90;;
32094;SDS011;18608;53.688;10.748;2023-04-06T06:23:39;31.33;;;15.90;;
32094;SDS011;18608;53.688;10.748;2023-04-06T06:26:06;28.00;;;15.10;;
32094;SDS011;18608;53.688;10.748;2023-04-06T06:28:32;20.30;;;12.67;;
32094;SDS011;18608;53.688;10.748;2023-04-06T06:30:58;25.23;;;13.00;;
32094;SDS011;18608;53.688;10.748;2023-04-06T06:33:24;22.20;;;13.53;;
32094;SDS011;18608;53.688;10.748;2023-04-06T06:35:51;18.10;;;12.60;;
32094;SDS011;18608;53.688;10.748;2023-04-06T06:38:17;25.10;;;14.50;;
32094;SDS011;18608;53.688;10.748;2023-04-06T06:40:44;20.33;;;14.17;;
32094;SDS011;18608;53.688;10.748;2023-04-06T06:43:11;21.13;;;13.67;;
32094;SDS011;18608;53.688;10.748;2023-04-06T06:45:36;21.33;;;13.40;;
32094;SDS011;18608;53.688;10.748;2023-04-06T06:48:02;26.27;;;14.20;;
32094;SDS011;18608;53.688;10.748;2023-04-06T06:50:28;20.23;;;14.13;;
32094;SDS011;18608;53.688;10.748;2023-04-06T06:52:54;23.07;;;13.23;;
32094;SDS011;18608;53.688;10.748;2023-04-06T06:55:20;23.17;;;14.20;;
32094;SDS011;18608;53.688;10.748;2023-04-06T06:57:46;22.23;;;13.23;;
32094;SDS011;18608;53.688;10.748;2023-04-06T07:00:12;21.07;;;12.70;;
32094;SDS011;18608;53.688;10.748;2023-04-06T07:02:39;16.30;;;11.90;;
32094;SDS011;18608;53.688;10.748;2023-04-06T07:05:05;18.60;;;12.43;;
32094;SDS011;18608;53.688;10.748;2023-04-06T07:07:32;19.57;;;11.83;;
32094;SDS011;18608;53.688;10.748;2023-04-06T07:09:58;17.63;;;10.80;;
32094;SDS011;18608;53.688;10.748;2023-04-06T07:12:25;15.10;;;11.20;;
32094;SDS011;18608;53.688;10.748;2023-04-06T07:14:50;13.47;;;9.97;;
32094;SDS011;18608;53.688;10.748;2023-04-06T07:17:16;14.70;;;9.40;;
32094;SDS011;18608;53.688;10.748;2023-04-06T07:19:42;15.10;;;9.73;;
32094;SDS011;18608;53.688;10.748;2023-04-06T07:22:08;12.40;;;8.93;;
32094;SDS011;18608;53.688;10.748;2023-04-06T07:24:34;12.63;;;9.27;;
32094;SDS011;18608;53.688;10.748;2023-04-06T07:26:59;12.60;;;8.67;;
32094;SDS011;18608;53.688;10.748;2023-04-06T07:29:26;14.63;;;9.93;;
32094;SDS011;18608;53.688;10.748;2023-04-06T07:31:52;15.53;;;9.07;;
32094;SDS011;18608;53.688;10.748;2023-04-06T07:34:18;15.60;;;8.37;;
32094;SDS011;18608;53.688;10.748;2023-04-06T07:36:44;13.10;;;8.20;;
32094;SDS011;18608;53.688;10.748;2023-04-06T07:39:10;13.90;;;8.40;;
32094;SDS011;18608;53.688;10.748;2023-04-06T07:41:36;10.13;;;8.07;;
32094;SDS011;18608;53.688;10.748;2023-04-06T07:44:02;12.63;;;9.47;;
32094;SDS011;18608;53.688;10.748;2023-04-06T07:46:29;15.73;;;9.40;;
32094;SDS011;18608;53.688;10.748;2023-04-06T07:48:55;9.37;;;7.70;;
32094;SDS011;18608;53.688;10.748;2023-04-06T07:51:22;14.10;;;7.80;;
32094;SDS011;18608;53.688;10.748;2023-04-06T07:53:49;12.50;;;8.40;;
32094;SDS011;18608;53.688;10.748;2023-04-06T07:56:15;10.60;;;7.87;;
32094;SDS011;18608;53.688;10.748;2023-04-06T07:58:41;11.00;;;7.50;;
32094;SDS011;18608;53.688;10.748;2023-04-06T08:01:07;9.73;;;5.80;;
32094;SDS011;18608;53.688;10.748;2023-04-06T08:03:34;10.47;;;6.20;;
32094;SDS011;18608;53.688;10.748;2023-04-06T08:06:01;10.17;;;7.20;;
32094;SDS011;18608;53.688;10.748;2023-04-06T08:08:27;10.73;;;6.90;;
32094;SDS011;18608;53.688;10.748;2023-04-06T08:10:53;14.53;;;6.27;;
32094;SDS011;18608;53.688;10.748;2023-04-06T08:13:19;6.47;;;5.23;;
32094;SDS011;18608;53.688;10.748;2023-04-06T08:15:46;10.37;;;6.40;;
32094;SDS011;18608;53.688;10.748;2023-04-06T08:18:12;6.50;;;5.63;;
32094;SDS011;18608;53.688;10.748;2023-04-06T08:20:38;8.03;;;5.70;;
32094;SDS011;18608;53.688;10.748;2023-04-06T08:23:05;9.30;;;5.90;;
32094;SDS011;18608;53.688;10.748;2023-04-06T08:25:33;6.13;;;5.53;;
32094;SDS011;18608;53.688;10.748;2023-04-06T08:28:00;7.97;;;4.60;;
32094;SDS011;18608;53.688;10.748;2023-04-06T08:30:26;9.40;;;5.10;;
32094;SDS011;18608;53.688;10.748;2023-04-06T08:32:52;8.83;;;4.73;;
32094;SDS011;18608;53.688;10.748;2023-04-06T08:35:18;6.63;;;5.10;;
32094;SDS011;18608;53.688;10.748;2023-04-06T08:37:45;7.73;;;5.37;;
32094;SDS011;18608;53.688;10.748;2023-04-06T08:40:11;8.23;;;5.70;;
32094;SDS011;18608;53.688;10.748;2023-04-06T08:42:41;6.70;;;4.80;;
32094;SDS011;18608;53.688;10.748;2023-04-06T08:45:15;11.53;;;5.13;;
32094;SDS011;18608;53.688;10.748;2023-04-06T08:47:42;6.63;;;5.10;;
32094;SDS011;18608;53.688;10.748;2023-04-06T08:50:10;7.30;;;5.10;;
32094;SDS011;18608;53.688;10.748;2023-04-06T08:52:39;11.23;;;5.70;;
32094;SDS011;18608;53.688;10.748;2023-04-06T08:55:06;8.40;;;5.23;;
32094;SDS011;18608;53.688;10.748;2023-04-06T08:57:33;7.97;;;4.03;;
32094;SDS011;18608;53.688;10.748;2023-04-06T09:00:01;6.90;;;4.90;;
32094;SDS011;18608;53.688;10.748;2023-04-06T09:02:27;7.17;;;6.13;;
32094;SDS011;18608;53.688;10.748;2023-04-06T09:04:53;5.07;;;4.57;;
32094;SDS011;18608;53.688;10.748;2023-04-06T09:07:20;9.63;;;4.80;;
32094;SDS011;18608;53.688;10.748;2023-04-06T09:09:46;7.70;;;4.47;;
32094;SDS011;18608;53.688;10.748;2023-04-06T09:12:25;9.73;;;4.57;;
32094;SDS011;18608;53.688;10.748;2023-04-06T09:14:52;4.80;;;4.23;;
32094;SDS011;18608;53.688;10.748;2023-04-06T09:17:22;4.57;;;4.17;;
32094;SDS011;18608;53.688;10.748;2023-04-06T09:19:49;4.67;;;4.17;;
32094;SDS011;18608;53.688;10.748;2023-04-06T09:22:15;6.03;;;4.80;;
32094;SDS011;18608;53.688;10.748;2023-04-06T09:24:45;3.97;;;3.67;;
32094;SDS011;18608;53.688;10.748;2023-04-06T09:27:13;4.30;;;3.70;;
32094;SDS011;18608;53.688;10.748;2023-04-06T09:29:44;11.30;;;4.67;;
32094;SDS011;18608;53.688;10.748;2023-04-06T09:32:10;4.10;;;3.80;;
32094;SDS011;18608;53.688;10.748;2023-04-06T09:34:37;5.53;;;3.40;;
32094;SDS011;18608;53.688;10.748;2023-04-06T09:37:16;4.93;;;3.40;;
32094;SDS011;18608;53.688;10.748;2023-04-06T09:39:43;4.73;;;4.37;;
32094;SDS011;18608;53.688;10.748;2023-04-06T09:42:12;6.07;;;4.17;;
32094;SDS011;18608;53.688;10.748;2023-04-06T09:44:51;5.73;;;4.37;;
32094;SDS011;18608;53.688;10.748;2023-04-06T09:47:17;5.23;;;4.07;;
32094;SDS011;18608;53.688;10.748;2023-04-06T09:49:44;6.10;;;4.60;;
32094;SDS011;18608;53.688;10.748;2023-04-06T09:52:13;9.10;;;2.80;;
32094;SDS011;18608;53.688;10.748;2023-04-06T09:54:40;4.13;;;3.07;;
32094;SDS011;18608;53.688;10.748;2023-04-06T09:57:13;2.90;;;2.60;;
32094;SDS011;18608;53.688;10.748;2023-04-06T10:05:20;7.20;;;4.20;;
32094;SDS011;18608;53.688;10.748;2023-04-06T10:07:57;6.73;;;3.83;;
32094;SDS011;18608;53.688;10.748;2023-04-06T10:10:25;6.27;;;4.40;;
32094;SDS011;18608;53.688;10.748;2023-04-06T10:12:51;3.90;;;3.50;;
32094;SDS011;18608;53.688;10.748;2023-04-06T10:15:17;4.63;;;3.50;;
32094;SDS011;18608;53.688;10.748;2023-04-06T10:17:43;7.90;;;4.10;;
32094;SDS011;18608;53.688;10.748;2023-04-06T10:22:59;5.03;;;4.40;;
32094;SDS011;18608;53.688;10.748;2023-04-06T10:25:33;5.23;;;3.43;;
32094;SDS011;18608;53.688;10.748;2023-04-06T10:28:09;5.43;;;4.07;;
32094;SDS011;18608;53.688;10.748;2023-04-06T10:30:41;4.90;;;4.10;;
32094;SDS011;18608;53.688;10.748;2023-04-06T10:33:14;4.70;;;4.20;;
32094;SDS011;18608;53.688;10.748;2023-04-06T10:35:40;4.90;;;4.40;;
32094;SDS011;18608;53.688;10.748;2023-04-06T10:38:06;4.53;;;3.77;;
32094;SDS011;18608;53.688;10.748;2023-04-06T10:40:34;4.30;;;3.90;;
32094;SDS011;18608;53.688;10.748;2023-04-06T10:43:09;4.73;;;4.20;;
32094;SDS011;18608;53.688;10.748;2023-04-06T10:45:38;5.80;;;3.80;;
32094;SDS011;18608;53.688;10.748;2023-04-06T10:48:15;8.53;;;4.93;;
32094;SDS011;18608;53.688;10.748;2023-04-06T10:50:49;6.63;;;4.27;;
32094;SDS011;18608;53.688;10.748;2023-04-06T10:53:26;5.43;;;3.87;;
32094;SDS011;18608;53.688;10.748;2023-04-06T10:55:54;8.00;;;3.93;;
32094;SDS011;18608;53.688;10.748;2023-04-06T10:58:24;5.47;;;4.20;;
32094;SDS011;18608;53.688;10.748;2023-04-06T11:00:51;6.30;;;4.23;;
32094;SDS011;18608;53.688;10.748;2023-04-06T11:03:17;5.37;;;4.00;;
32094;SDS011;18608;53.688;10.748;2023-04-06T11:05:44;4.80;;;3.40;;
32094;SDS011;18608;53.688;10.748;2023-04-06T11:08:10;4.77;;;4.27;;
32094;SDS011;18608;53.688;10.748;2023-04-06T11:13:45;6.97;;;4.80;;
32094;SDS011;18608;53.688;10.748;2023-04-06T11:16:12;5.20;;;4.77;;
32094;SDS011;18608;53.688;10.748;2023-04-06T11:21:35;9.27;;;5.20;;
32094;SDS011;18608;53.688;10.748;2023-04-06T11:24:22;7.90;;;5.53;;
32094;SDS011;18608;53.688;10.748;2023-04-06T11:26:50;7.60;;;5.97;;
32094;SDS011;18608;53.688;10.748;2023-04-06T11:29:19;8.83;;;5.07;;
32094;SDS011;18608;53.688;10.748;2023-04-06T11:31:57;5.10;;;4.60;;
32094;SDS011;18608;53.688;10.748;2023-04-06T11:34:23;5.70;;;5.20;;
32094;SDS011;18608;53.688;10.748;2023-04-06T11:36:57;5.80;;;5.30;;
32094;SDS011;18608;53.688;10.748;2023-04-06T11:39:25;6.93;;;6.07;;
32094;SDS011;18608;53.688;10.748;2023-04-06T11:41:53;6.27;;;5.67;;
32094;SDS011;18608;53.688;10.748;2023-04-06T11:44:28;6.40;;;5.40;;
32094;SDS011;18608;53.688;10.748;2023-04-06T11:46:58;7.80;;;5.80;;
32094;SDS011;18608;53.688;10.748;2023-04-06T11:49:27;12.83;;;6.70;;
32094;SDS011;18608;53.688;10.748;2023-04-06T11:51:54;12.00;;;6.43;;
32094;SDS011;18608;53.688;10.748;2023-04-06T11:54:33;7.20;;;5.00;;
32094;SDS011;18608;53.688;10.748;2023-04-06T11:57:01;7.00;;;6.30;;
32094;SDS011;18608;53.688;10.748;2023-04-06T11:59:27;6.47;;;5.77;;
32094;SDS011;18608;53.688;10.748;2023-04-06T12:01:53;8.47;;;6.23;;
32094;SDS011;18608;53.688;10.748;2023-04-06T12:04:20;9.47;;;6.30;;
32094;SDS011;18608;53.688;10.748;2023-04-06T12:06:46;6.97;;;5.90;;
32094;SDS011;18608;53.688;10.748;2023-04-06T12:09:12;6.97;;;6.10;;
32094;SDS011;18608;53.688;10.748;2023-04-06T12:11:38;9.50;;;6.20;;
32094;SDS011;18608;53.688;10.748;2023-04-06T12:14:05;8.73;;;7.23;;
32094;SDS011;18608;53.688;10.748;2023-04-06T12:16:32;13.30;;;6.60;;
32094;SDS011;18608;53.688;10.748;2023-04-06T12:19:01;13.83;;;7.17;;
32094;SDS011;18608;53.688;10.748;2023-04-06T12:21:27;9.03;;;7.03;;
32094;SDS011;18608;53.688;10.748;2023-04-06T12:23:55;8.47;;;6.00;;
32094;SDS011;18608;53.688;10.748;2023-04-06T12:26:22;8.93;;;6.93;;
32094;SDS011;18608;53.688;10.748;2023-04-06T12:28:48;14.93;;;9.30;;
32094;SDS011;18608;53.688;10.748;2023-04-06T12:31:14;8.83;;;6.67;;
32094;SDS011;18608;53.688;10.748;2023-04-06T12:33:41;9.00;;;8.07;;
32094;SDS011;18608;53.688;10.748;2023-04-06T12:36:17;9.10;;;7.50;;
32094;SDS011;18608;53.688;10.748;2023-04-06T12:38:44;10.00;;;7.47;;
32094;SDS011;18608;53.688;10.748;2023-04-06T12:41:11;12.20;;;7.20;;
32094;SDS011;18608;53.688;10.748;2023-04-06T12:43:41;10.50;;;8.37;;
32094;SDS011;18608;53.688;10.748;2023-04-06T12:46:07;9.97;;;7.93;;
32094;SDS011;18608;53.688;10.748;2023-04-06T12:48:33;14.83;;;8.70;;
32094;SDS011;18608;53.688;10.748;2023-04-06T12:51:01;9.67;;;7.47;;
32094;SDS011;18608;53.688;10.748;2023-04-06T12:53:28;10.10;;;7.17;;
32094;SDS011;18608;53.688;10.748;2023-04-06T12:55:55;11.00;;;7.90;;
32094;SDS011;18608;53.688;10.748;2023-04-06T12:58:22;8.03;;;5.53;;
32094;SDS011;18608;53.688;10.748;2023-04-06T13:00:49;9.60;;;7.80;;
32094;SDS011;18608;53.688;10.748;2023-04-06T13:03:16;15.77;;;8.87;;
32094;SDS011;18608;53.688;10.748;2023-04-06T13:05:43;14.77;;;8.63;;
32094;SDS011;18608;53.688;10.748;2023-04-06T13:08:13;11.10;;;8.40;;
32094;SDS011;18608;53.688;10.748;2023-04-06T13:10:49;8.60;;;7.10;;
32094;SDS011;18608;53.688;10.748;2023-04-06T13:13:16;9.27;;;7.40;;
32094;SDS011;18608;53.688;10.748;2023-04-06T13:15:42;9.20;;;7.60;;
32094;SDS011;18608;53.688;10.748;2023-04-06T13:18:08;13.20;;;7.90;;
32094;SDS011;18608;53.688;10.748;2023-04-06T13:20:34;13.70;;;8.70;;
32094;SDS011;18608;53.688;10.748;2023-04-06T13:23:00;12.17;;;8.83;;
32094;SDS011;18608;53.688;10.748;2023-04-06T13:25:26;20.33;;;9.70;;
32094;SDS011;18608;53.688;10.748;2023-04-06T13:27:53;13.30;;;8.30;;
32094;SDS011;18608;53.688;10.748;2023-04-06T13:30:19;11.33;;;8.80;;
32094;SDS011;18608;53.688;10.748;2023-04-06T13:32:45;13.17;;;8.23;;
32094;SDS011;18608;53.688;10.748;2023-04-06T13:35:11;12.13;;;8.70;;
32094;SDS011;18608;53.688;10.748;2023-04-06T13:37:37;11.20;;;8.10;;
32094;SDS011;18608;53.688;10.748;2023-04-06T13:40:04;10.20;;;7.90;;
32094;SDS011;18608;53.688;10.748;2023-04-06T13:42:31;10.03;;;8.00;;
32094;SDS011;18608;53.688;10.748;2023-04-06T13:44:57;9.30;;;7.30;;
32094;SDS011;18608;53.688;10.748;2023-04-06T13:47:24;15.30;;;8.77;;
32094;SDS011;18608;53.688;10.748;2023-04-06T13:49:50;12.30;;;9.00;;
32094;SDS011;18608;53.688;10.748;2023-04-06T13:52:19;16.70;;;8.23;;
32094;SDS011;18608;53.688;10.748;2023-04-06T13:54:45;9.77;;;7.40;;
32094;SDS011;18608;53.688;10.748;2023-04-06T13:57:11;10.90;;;8.30;;
32094;SDS011;18608;53.688;10.748;2023-04-06T13:59:37;12.53;;;8.27;;
32094;SDS011;18608;53.688;10.748;2023-04-06T14:02:04;16.50;;;8.00;;
32094;SDS011;18608;53.688;10.748;2023-04-06T14:04:32;9.10;;;7.07;;
32094;SDS011;18608;53.688;10.748;2023-04-06T14:06:58;10.20;;;8.27;;
32094;SDS011;18608;53.688;10.748;2023-04-06T14:09:25;12.00;;;7.93;;
32094;SDS011;18608;53.688;10.748;2023-04-06T14:11:51;8.93;;;8.03;;
32094;SDS011;18608;53.688;10.748;2023-04-06T14:14:17;21.60;;;9.10;;
32094;SDS011;18608;53.688;10.748;2023-04-06T14:16:43;12.53;;;8.63;;
32094;SDS011;18608;53.688;10.748;2023-04-06T14:19:10;10.30;;;7.20;;
32094;SDS011;18608;53.688;10.748;2023-04-06T14:21:40;12.73;;;8.37;;
32094;SDS011;18608;53.688;10.748;2023-04-06T14:24:06;13.43;;;8.73;;
32094;SDS011;18608;53.688;10.748;2023-04-06T14:26:36;14.43;;;7.90;;
32094;SDS011;18608;53.688;10.748;2023-04-06T14:29:03;8.93;;;7.90;;
32094;SDS011;18608;53.688;10.748;2023-04-06T14:31:29;10.43;;;8.43;;
32094;SDS011;18608;53.688;10.748;2023-04-06T14:33:55;10.30;;;8.40;;